createdAt,value
2018-10-03T00:01:47.588Z,11.41
2018-10-03T00:04:16.522Z,11.38
2018-10-03T00:06:45.367Z,11.31
2018-10-03T00:09:14.272Z,11.32
2018-10-03T00:11:43.388Z,11.41
2018-10-03T00:14:12.690Z,11.39
2018-10-03T00:16:42.001Z,11.33
2018-10-03T00:19:10.841Z,11.33
2018-10-03T00:21:39.748Z,11.38
2018-10-03T00:24:08.558Z,11.48
2018-10-03T00:26:38.508Z,11.54
2018-10-03T00:29:07.376Z,11.57
2018-10-03T00:31:36.208Z,11.63
2018-10-03T00:34:05.376Z,11.62
2018-10-03T00:36:34.414Z,11.65
2018-10-03T00:39:03.351Z,11.64
2018-10-03T00:41:32.149Z,11.59
2018-10-03T00:44:01.048Z,11.59
2018-10-03T00:46:29.819Z,11.55
2018-10-03T00:48:58.731Z,11.48
2018-10-03T00:51:27.663Z,11.46
2018-10-03T00:53:56.582Z,11.46
2018-10-03T00:56:25.338Z,11.50
2018-10-03T00:58:54.207Z,11.52
2018-10-03T01:01:22.929Z,11.47
2018-10-03T01:03:51.856Z,11.51
2018-10-03T01:06:20.701Z,11.50
2018-10-03T01:08:49.559Z,11.48
2018-10-03T01:11:18.402Z,11.62
2018-10-03T01:13:47.435Z,11.69
2018-10-03T01:16:16.246Z,11.66
2018-10-03T01:18:45.150Z,11.71
2018-10-03T01:21:14.654Z,11.63
2018-10-03T01:23:43.593Z,11.62
2018-10-03T01:26:12.724Z,11.53
2018-10-03T01:28:41.589Z,11.58
2018-10-03T01:31:10.504Z,11.57
2018-10-03T01:33:39.359Z,11.49
2018-10-03T01:36:08.303Z,11.47
2018-10-03T01:38:37.155Z,11.38
2018-10-03T01:41:06.206Z,11.28
2018-10-03T01:43:34.969Z,11.30
2018-10-03T01:46:03.811Z,11.19
2018-10-03T01:48:32.921Z,11.10
2018-10-03T01:51:01.852Z,11.13
2018-10-03T01:53:30.574Z,11.05
2018-10-03T01:55:59.475Z,10.94
2018-10-03T01:58:28.269Z,10.95
2018-10-03T02:00:57.067Z,10.93
2018-10-03T02:03:26.385Z,10.96
2018-10-03T02:05:55.235Z,10.98
2018-10-03T02:08:24.053Z,10.85
2018-10-03T02:10:52.896Z,10.78
2018-10-03T02:13:21.783Z,10.73
2018-10-03T02:15:50.602Z,10.78
2018-10-03T02:18:19.482Z,10.77
2018-10-03T02:20:48.391Z,10.80
2018-10-03T02:23:17.263Z,10.79
2018-10-03T02:25:46.194Z,10.81
2018-10-03T02:28:15.308Z,10.68
2018-10-03T02:30:44.280Z,10.79
2018-10-03T02:33:13.059Z,10.84
2018-10-03T02:35:41.894Z,10.79
2018-10-03T02:38:10.691Z,10.81
2018-10-03T02:40:39.891Z,10.75
2018-10-03T02:43:08.802Z,10.72
2018-10-03T02:45:37.582Z,10.67
2018-10-03T02:48:06.495Z,10.73
2018-10-03T02:50:35.322Z,10.76
2018-10-03T02:53:04.180Z,10.80
2018-10-03T02:55:32.947Z,10.84
2018-10-03T02:58:01.782Z,10.93
2018-10-03T03:00:30.567Z,10.98
2018-10-03T03:02:59.392Z,10.95
2018-10-03T03:05:28.253Z,10.98
2018-10-03T03:07:57.052Z,11.00
2018-10-03T03:10:25.876Z,11.02
2018-10-03T03:12:54.714Z,11.01
2018-10-03T03:15:23.572Z,10.97
2018-10-03T03:17:52.356Z,10.99
2018-10-03T03:20:21.245Z,11.09
2018-10-03T03:22:50.491Z,11.12
2018-10-03T03:25:19.344Z,11.20
2018-10-03T03:27:48.256Z,11.20
2018-10-03T03:30:17.122Z,11.23
2018-10-03T03:32:45.936Z,11.21
2018-10-03T03:35:15.233Z,11.11
2018-10-03T03:37:44.087Z,11.11
2018-10-03T03:40:13.038Z,11.05
2018-10-03T03:42:41.826Z,10.99
2018-10-03T03:45:10.697Z,11.02
2018-10-03T03:47:39.575Z,10.97
2018-10-03T03:50:08.323Z,10.95
2018-10-03T03:52:37.431Z,10.85
2018-10-03T03:55:06.716Z,10.86
2018-10-03T03:57:35.499Z,10.64
2018-10-03T04:00:04.328Z,10.65
2018-10-03T04:02:33.255Z,10.58
2018-10-03T04:05:02.046Z,10.56
2018-10-03T04:07:30.890Z,10.48
2018-10-03T04:09:59.729Z,10.44
2018-10-03T04:12:28.578Z,10.41
2018-10-03T04:14:57.616Z,10.41
2018-10-03T04:17:26.800Z,10.38
2018-10-03T04:19:55.837Z,10.53
2018-10-03T04:22:26.756Z,10.55
2018-10-03T04:24:55.655Z,10.50
2018-10-03T04:27:24.546Z,10.51
2018-10-03T04:29:54.194Z,10.54
2018-10-03T04:32:23.036Z,10.59
2018-10-03T04:34:51.874Z,10.59
2018-10-03T04:37:20.813Z,10.57
2018-10-03T04:39:49.646Z,10.58
2018-10-03T04:42:18.529Z,10.66
2018-10-03T04:44:47.368Z,10.71
2018-10-03T04:47:16.208Z,10.78
2018-10-03T04:49:45.030Z,10.82
2018-10-03T04:52:13.855Z,10.91
2018-10-03T04:54:43.060Z,11.02
2018-10-03T04:57:11.919Z,11.05
2018-10-03T04:59:42.772Z,11.09
2018-10-03T05:02:11.673Z,11.10
2018-10-03T05:04:40.496Z,11.12
2018-10-03T05:07:09.723Z,11.05
2018-10-03T05:09:38.748Z,11.02
2018-10-03T05:12:07.735Z,10.98
2018-10-03T05:14:36.595Z,10.98
2018-10-03T05:17:05.335Z,11.04
2018-10-03T05:19:34.108Z,11.13
2018-10-03T05:22:02.927Z,11.24
2018-10-03T05:24:31.763Z,11.24
2018-10-03T05:27:00.513Z,11.26
2018-10-03T05:29:30.040Z,11.28
2018-10-03T05:31:58.930Z,11.41
2018-10-03T05:34:27.743Z,11.45
2018-10-03T05:36:56.639Z,11.40
2018-10-03T05:39:25.478Z,11.40
2018-10-03T05:41:54.351Z,11.43
2018-10-03T05:44:23.162Z,11.53
2018-10-03T05:46:51.954Z,11.56
2018-10-03T05:49:20.811Z,11.54
2018-10-03T05:51:49.615Z,11.62
2018-10-03T05:54:18.428Z,11.55
2018-10-03T05:56:47.255Z,11.61
2018-10-03T05:59:16.059Z,11.64
2018-10-03T06:01:44.959Z,11.65
2018-10-03T06:04:13.829Z,11.66
2018-10-03T06:06:42.664Z,11.69
2018-10-03T06:09:13.087Z,11.73
2018-10-03T06:11:43.058Z,11.81
2018-10-03T06:14:12.417Z,11.88
2018-10-03T06:16:41.411Z,11.81
2018-10-03T06:19:10.298Z,11.79
2018-10-03T06:21:39.155Z,11.80
2018-10-03T06:24:08.045Z,11.84
2018-10-03T06:26:36.844Z,11.96
2018-10-03T06:29:05.840Z,11.93
2018-10-03T06:31:34.796Z,11.89
2018-10-03T06:34:03.748Z,12.02
2018-10-03T06:36:33.235Z,12.05
2018-10-03T06:39:02.249Z,12.09
2018-10-03T06:41:31.172Z,12.20
2018-10-03T06:44:00.064Z,12.24
2018-10-03T06:46:28.890Z,12.47
2018-10-03T06:48:57.881Z,12.53
2018-10-03T06:51:26.803Z,12.58
2018-10-03T06:53:55.652Z,12.64
2018-10-03T06:56:24.765Z,12.86
2018-10-03T06:58:53.623Z,13.04
2018-10-03T07:01:22.602Z,12.96
2018-10-03T07:03:51.454Z,12.97
2018-10-03T07:06:20.737Z,13.03
2018-10-03T07:08:49.787Z,12.95
2018-10-03T07:11:18.624Z,13.03
2018-10-03T07:13:47.475Z,13.06
2018-10-03T07:16:16.517Z,12.96
2018-10-03T07:18:45.722Z,12.92
2018-10-03T07:21:14.822Z,13.32
2018-10-03T07:23:43.783Z,13.38
2018-10-03T07:26:12.746Z,14.32
2018-10-03T07:28:41.586Z,14.25
2018-10-03T07:31:10.827Z,13.97
2018-10-03T07:33:39.704Z,14.06
2018-10-03T07:36:08.709Z,13.97
2018-10-03T07:38:37.688Z,13.64
2018-10-03T07:41:06.702Z,13.58
2018-10-03T07:43:35.550Z,13.72
2018-10-03T07:46:04.456Z,13.82
2018-10-03T07:48:33.354Z,14.88
2018-10-03T07:51:03.471Z,16.06
2018-10-03T07:53:32.710Z,15.59
2018-10-03T07:56:02.792Z,15.65
2018-10-03T07:58:31.969Z,15.49
2018-10-03T08:01:00.841Z,15.03
2018-10-03T08:03:29.774Z,15.28
2018-10-03T08:05:59.043Z,15.25
2018-10-03T08:08:28.500Z,15.11
2018-10-03T08:10:59.382Z,15.05
2018-10-03T08:13:34.094Z,15.58
2018-10-03T08:16:03.121Z,15.48
2018-10-03T08:18:32.008Z,15.39
2018-10-03T08:21:01.177Z,15.28
2018-10-03T08:23:38.117Z,15.82
2018-10-03T08:26:16.076Z,15.95
2018-10-03T08:28:46.313Z,16.18
2018-10-03T08:31:15.204Z,16.03
2018-10-03T08:33:44.150Z,16.21
2018-10-03T08:36:12.995Z,16.14
2018-10-03T08:38:41.927Z,16.24
2018-10-03T08:41:10.686Z,16.40
2018-10-03T08:43:39.541Z,15.76
2018-10-03T08:46:08.474Z,15.63
2018-10-03T08:48:37.420Z,15.57
2018-10-03T08:51:06.379Z,15.31
2018-10-03T08:53:35.243Z,15.33
2018-10-03T08:56:04.162Z,14.93
2018-10-03T08:58:33.136Z,14.81
2018-10-03T09:01:01.994Z,14.88
2018-10-03T09:03:30.755Z,14.59
2018-10-03T09:05:59.528Z,14.46
2018-10-03T09:08:28.372Z,14.60
2018-10-03T09:10:57.263Z,14.52
2018-10-03T09:13:27.675Z,14.51
2018-10-03T09:16:02.302Z,14.39
2018-10-03T09:18:31.158Z,14.83
2018-10-03T09:21:00.038Z,15.58
2018-10-03T09:23:28.880Z,15.39
2018-10-03T09:25:57.850Z,15.95
2018-10-03T09:31:17.643Z,15.48
2018-10-03T09:33:46.595Z,15.41
2018-10-03T09:36:15.512Z,15.27
2018-10-03T09:38:44.243Z,15.18
2018-10-03T09:41:13.040Z,15.38
2018-10-03T09:43:42.255Z,15.37
2018-10-03T09:46:11.420Z,15.70
2018-10-03T09:48:40.271Z,16.02
2018-10-03T09:51:09.152Z,15.94
2018-10-03T09:53:37.941Z,15.26
2018-10-03T09:56:06.873Z,14.94
2018-10-03T09:58:35.624Z,14.79
2018-10-03T10:01:09.839Z,14.71
2018-10-03T10:03:38.576Z,14.55
2018-10-03T10:06:07.472Z,14.81
2018-10-03T10:08:36.638Z,15.11
2018-10-03T10:11:05.730Z,14.93
2018-10-03T10:13:34.607Z,14.64
2018-10-03T10:16:03.422Z,14.90
2018-10-03T10:18:32.279Z,14.84
2018-10-03T10:21:01.115Z,15.23
2018-10-03T10:23:29.990Z,16.00
2018-10-03T10:25:58.836Z,16.01
2018-10-03T10:28:27.804Z,15.26
2018-10-03T10:30:56.583Z,15.02
2018-10-03T10:33:26.208Z,14.98
2018-10-03T10:35:55.133Z,14.87
2018-10-03T10:38:24.022Z,14.93
2018-10-03T10:40:52.951Z,15.05
2018-10-03T10:43:21.878Z,14.86
2018-10-03T10:45:51.415Z,14.94
2018-10-03T10:48:20.606Z,15.01
2018-10-03T10:50:49.684Z,15.23
2018-10-03T10:53:18.623Z,15.26
2018-10-03T10:55:47.484Z,15.08
2018-10-03T10:58:16.482Z,14.85
2018-10-03T11:00:45.436Z,14.69
2018-10-03T11:03:14.552Z,14.79
2018-10-03T11:05:43.504Z,15.02
2018-10-03T11:08:12.390Z,15.41
2018-10-03T11:10:41.313Z,15.62
2018-10-03T11:13:10.482Z,15.91
2018-10-03T11:15:39.849Z,15.58
2018-10-03T11:18:08.864Z,14.96
2018-10-03T11:20:37.864Z,13.98
2018-10-03T11:23:06.748Z,13.52
2018-10-03T11:25:35.781Z,13.41
2018-10-03T11:28:04.631Z,13.55
2018-10-03T11:30:33.908Z,13.91
2018-10-03T11:33:02.805Z,13.97
2018-10-03T11:35:31.845Z,14.42
2018-10-03T11:38:01.388Z,14.91
2018-10-03T11:40:30.278Z,15.03
2018-10-03T11:42:59.268Z,15.06
2018-10-03T11:45:28.021Z,14.78
2018-10-03T11:47:56.957Z,14.50
2018-10-03T11:50:25.860Z,14.48
2018-10-03T11:52:54.744Z,15.05
2018-10-03T11:55:23.613Z,15.35
2018-10-03T11:57:52.459Z,15.52
2018-10-03T12:00:21.297Z,15.70
2018-10-03T12:02:50.421Z,15.60
2018-10-03T12:05:19.280Z,16.01
2018-10-03T12:07:48.204Z,15.81
2018-10-03T12:10:17.171Z,15.47
2018-10-03T12:12:46.228Z,15.41
2018-10-03T12:15:15.141Z,15.22
2018-10-03T12:17:44.087Z,15.19
2018-10-03T12:20:12.998Z,14.47
2018-10-03T12:22:41.862Z,14.21
2018-10-03T12:25:10.752Z,14.26
2018-10-03T12:27:39.669Z,14.21
2018-10-03T12:30:08.606Z,14.22
2018-10-03T12:32:37.680Z,14.30
2018-10-03T12:35:06.899Z,14.21
2018-10-03T12:37:35.793Z,13.62
2018-10-03T12:40:04.755Z,13.47
2018-10-03T12:42:34.223Z,13.52
2018-10-03T12:45:03.196Z,14.16
2018-10-03T12:47:32.028Z,14.58
2018-10-03T12:50:01.128Z,14.79
2018-10-03T12:52:30.015Z,15.51
2018-10-03T12:54:58.822Z,15.62
2018-10-03T12:57:28.457Z,15.29
2018-10-03T12:59:57.468Z,15.38
2018-10-03T13:02:26.573Z,15.86
2018-10-03T13:04:55.725Z,16.11
2018-10-03T13:07:24.538Z,16.10
2018-10-03T13:09:53.449Z,15.57
2018-10-03T13:12:22.267Z,15.91
2018-10-03T13:14:51.230Z,15.76
2018-10-03T13:17:20.265Z,15.64
2018-10-03T13:19:49.570Z,15.77
2018-10-03T13:22:18.324Z,15.56
2018-10-03T13:24:47.162Z,15.33
2018-10-03T13:27:16.042Z,15.32
2018-10-03T13:29:46.345Z,15.51
2018-10-03T13:32:15.916Z,15.70
2018-10-03T13:34:46.102Z,15.67
2018-10-03T13:37:15.557Z,15.84
2018-10-03T13:39:44.631Z,15.50
2018-10-03T13:42:14.660Z,15.33
2018-10-03T13:44:46.199Z,15.07
2018-10-03T13:47:15.122Z,14.87
2018-10-03T13:49:44.243Z,14.86
2018-10-03T13:52:13.579Z,14.98
2018-10-03T13:54:43.318Z,15.03
2018-10-03T13:57:14.161Z,15.11
2018-10-03T13:59:45.082Z,15.57
2018-10-03T14:02:14.943Z,16.28
2018-10-03T14:04:44.968Z,15.97
2018-10-03T14:07:14.805Z,15.98
2018-10-03T14:09:44.152Z,15.84
2018-10-03T14:12:13.271Z,15.53
2018-10-03T14:14:46.759Z,15.55
2018-10-03T14:17:15.929Z,15.22
2018-10-03T14:19:44.783Z,15.19
2018-10-03T14:22:13.720Z,15.39
2018-10-03T14:24:42.601Z,15.67
2018-10-03T14:27:11.444Z,15.94
2018-10-03T14:29:40.298Z,15.88
2018-10-03T14:32:09.144Z,15.72
2018-10-03T14:34:37.905Z,15.49
2018-10-03T14:37:12.695Z,15.48
2018-10-03T14:39:41.556Z,15.22
2018-10-03T14:42:10.487Z,15.10
2018-10-03T14:44:39.367Z,15.03
2018-10-03T14:47:08.290Z,14.91
2018-10-03T14:49:38.060Z,14.88
2018-10-03T14:52:07.260Z,14.87
2018-10-03T14:54:36.154Z,14.79
2018-10-03T14:57:05.209Z,14.75
2018-10-03T14:59:34.246Z,14.62
2018-10-03T15:02:03.335Z,14.66
2018-10-03T15:04:32.240Z,14.80
2018-10-03T15:07:01.164Z,14.90
2018-10-03T15:09:30.224Z,14.87
2018-10-03T15:11:59.164Z,15.05
2018-10-03T15:14:28.045Z,15.02
2018-10-03T15:16:57.139Z,14.82
2018-10-03T15:19:26.218Z,14.88
2018-10-03T15:21:55.335Z,14.80
2018-10-03T15:24:24.451Z,14.77
2018-10-03T15:26:53.456Z,14.73
2018-10-03T15:29:23.724Z,14.75
2018-10-03T15:31:52.986Z,14.77
2018-10-03T15:34:21.861Z,14.83
2018-10-03T15:36:50.706Z,14.66
2018-10-03T15:39:19.681Z,14.70
2018-10-03T15:41:48.462Z,14.91
2018-10-03T15:44:17.520Z,14.71
2018-10-03T15:46:46.463Z,14.75
2018-10-03T15:49:15.868Z,14.72
2018-10-03T15:51:44.713Z,14.60
2018-10-03T15:54:15.963Z,14.53
2018-10-03T15:56:44.875Z,14.60
2018-10-03T15:59:13.734Z,14.55
2018-10-03T16:01:43.117Z,14.46
2018-10-03T16:04:12.242Z,14.29
2018-10-03T16:06:41.079Z,14.31
2018-10-03T16:09:10.557Z,14.19
2018-10-03T16:11:39.882Z,14.09
2018-10-03T16:14:08.743Z,14.05
2018-10-03T16:16:37.608Z,14.00
2018-10-03T16:19:06.607Z,13.97
2018-10-03T16:21:36.041Z,14.00
2018-10-03T16:24:05.067Z,14.02
2018-10-03T16:26:34.369Z,13.97
2018-10-03T16:29:03.866Z,14.01
2018-10-03T16:31:32.862Z,13.95
2018-10-03T16:34:02.058Z,13.92
2018-10-03T16:36:30.926Z,13.82
2018-10-03T16:39:00.210Z,13.82
2018-10-03T16:41:29.963Z,13.74
2018-10-03T16:43:58.789Z,13.71
2018-10-03T16:46:28.417Z,13.72
2018-10-03T16:48:58.256Z,13.61
2018-10-03T16:51:27.065Z,13.58
2018-10-03T16:53:55.927Z,13.55
2018-10-03T16:56:24.947Z,13.55
2018-10-03T16:58:53.946Z,13.45
2018-10-03T17:01:23.594Z,13.42
2018-10-03T17:03:53.108Z,13.38
2018-10-03T17:06:22.349Z,13.33
2018-10-03T17:08:51.280Z,13.34
2018-10-03T17:11:20.392Z,13.25
2018-10-03T17:14:35.900Z,13.16
2018-10-03T17:17:05.198Z,13.09
2018-10-03T17:19:34.349Z,13.05
2018-10-03T17:22:03.842Z,12.94
2018-10-03T17:24:34.161Z,12.82
2018-10-03T17:27:02.964Z,12.74
2018-10-03T17:29:31.686Z,12.68
2018-10-03T17:32:03.260Z,12.64
2018-10-03T17:34:33.292Z,12.56
2018-10-03T17:37:02.787Z,12.60
2018-10-03T17:39:33.069Z,12.60
2018-10-03T17:42:04.560Z,12.63
2018-10-03T17:44:33.576Z,12.62
2018-10-03T17:47:04.483Z,12.54
2018-10-03T17:49:34.926Z,12.60
2018-10-03T17:52:04.068Z,12.61
2018-10-03T17:54:33.088Z,12.58
2018-10-03T17:57:03.672Z,12.56
2018-10-03T17:59:32.709Z,12.58
2018-10-03T18:02:05.220Z,12.56
2018-10-03T18:04:36.222Z,12.54
2018-10-03T18:07:06.271Z,12.45
2018-10-03T18:09:37.045Z,12.43
2018-10-03T18:12:15.848Z,12.40
2018-10-03T18:14:51.021Z,12.32
2018-10-03T18:17:20.907Z,12.21
2018-10-03T18:19:52.002Z,12.16
2018-10-03T18:22:26.147Z,12.13
2018-10-03T18:24:57.445Z,12.16
2018-10-03T18:30:45.381Z,12.47
2018-10-03T18:33:23.154Z,12.54
2018-10-03T18:35:53.458Z,12.53
2018-10-03T18:38:24.171Z,12.50
2018-10-03T18:40:57.158Z,12.48
2018-10-03T18:43:28.482Z,12.35
2018-10-03T18:46:02.345Z,12.24
2018-10-03T18:48:33.310Z,12.24
2018-10-03T18:51:03.691Z,12.15
2018-10-03T18:53:33.730Z,12.07
2018-10-03T18:56:03.324Z,12.03
2018-10-03T18:58:33.855Z,11.89
2018-10-03T19:01:06.566Z,11.82
2018-10-03T19:03:36.397Z,11.81
2018-10-03T19:06:07.396Z,11.77
2018-10-03T19:08:37.791Z,11.82
2018-10-03T19:11:07.510Z,11.83
2018-10-03T19:13:36.527Z,11.85
2018-10-03T19:16:05.658Z,11.88
2018-10-03T19:18:35.037Z,11.90
2018-10-03T19:21:04.803Z,11.93
2018-10-03T19:23:33.942Z,11.99
2018-10-03T19:26:03.117Z,12.06
2018-10-03T19:28:32.596Z,12.06
2018-10-03T19:31:01.516Z,12.01
2018-10-03T19:33:34.211Z,12.01
2018-10-03T19:36:04.527Z,12.05
2018-10-03T19:38:34.092Z,12.11
2018-10-03T19:41:03.462Z,12.27
2018-10-03T19:43:39.325Z,12.21
2018-10-03T19:46:09.121Z,12.27
2018-10-03T19:48:38.471Z,12.37
2018-10-03T19:51:07.966Z,12.25
2018-10-03T19:53:38.988Z,12.24
2018-10-03T19:56:09.049Z,12.24
2018-10-03T19:58:39.682Z,12.19
2018-10-03T20:01:08.611Z,12.19
2018-10-03T20:03:37.552Z,12.23
2018-10-03T20:06:07.411Z,12.18
2018-10-03T20:08:36.541Z,12.07
2018-10-03T20:11:05.509Z,11.95
2018-10-03T20:13:34.861Z,11.80
2018-10-03T20:16:04.002Z,11.73
2018-10-03T20:18:32.820Z,11.64
2018-10-03T20:21:02.157Z,11.59
2018-10-03T20:23:31.312Z,11.55
2018-10-03T20:26:00.189Z,11.45
2018-10-03T20:28:29.996Z,11.30
2018-10-03T20:31:02.448Z,11.28
2018-10-03T20:33:32.105Z,11.21
2018-10-03T20:36:02.725Z,11.18
2018-10-03T20:47:04.616Z,10.83
2018-10-03T20:49:33.573Z,10.78
2018-10-03T20:52:03.157Z,10.80
2018-10-03T20:54:33.980Z,10.73
2018-10-03T20:57:03.863Z,10.71
2018-10-03T20:59:33.706Z,10.65
2018-10-03T21:02:02.923Z,10.59
2018-10-03T21:04:32.975Z,10.52
2018-10-03T21:07:01.821Z,10.51
2018-10-03T21:09:31.405Z,10.56
2018-10-03T21:12:00.396Z,10.58
2018-10-03T21:14:29.270Z,10.61
2018-10-03T21:16:58.558Z,10.60
2018-10-03T21:19:28.297Z,10.62
2018-10-03T21:21:58.669Z,10.74
2018-10-03T21:24:27.996Z,10.82
2018-10-03T21:26:57.337Z,10.85
2018-10-03T21:29:26.182Z,10.93
2018-10-03T21:31:55.134Z,11.00
2018-10-03T21:34:24.041Z,11.03
2018-10-03T21:36:52.900Z,11.03
2018-10-03T21:39:23.504Z,11.18
2018-10-03T21:41:53.502Z,11.25
2018-10-03T21:44:23.602Z,11.26
2018-10-03T21:46:54.048Z,11.30
2018-10-03T21:49:24.918Z,11.27
2018-10-03T21:51:54.113Z,11.35
2018-10-03T21:54:23.591Z,11.32
2018-10-03T21:56:54.874Z,11.29
2018-10-03T21:59:23.812Z,11.30
2018-10-03T22:02:02.553Z,11.30
2018-10-03T22:04:31.520Z,11.36
2018-10-03T22:07:01.049Z,11.34
2018-10-03T22:09:34.122Z,11.30
2018-10-03T22:12:02.919Z,11.30
2018-10-03T22:14:32.242Z,11.29
2018-10-03T22:17:17.390Z,11.28
2018-10-03T22:19:46.792Z,11.29
2018-10-03T22:22:15.836Z,11.27
2018-10-03T22:24:44.728Z,11.26
2018-10-03T22:27:13.675Z,11.25
2018-10-03T22:29:44.688Z,11.28
2018-10-03T22:32:13.553Z,11.27
2018-10-03T22:34:42.590Z,11.25
2018-10-03T22:37:12.100Z,11.16
2018-10-03T22:39:41.696Z,11.10
2018-10-03T22:42:11.065Z,11.03
2018-10-03T22:44:40.008Z,11.03
2018-10-03T22:47:08.952Z,11.02
2018-10-03T22:49:37.747Z,10.96
2018-10-03T22:52:07.092Z,10.92
2018-10-03T22:54:35.900Z,10.84
2018-10-03T22:57:05.515Z,10.75
2018-10-03T22:59:34.332Z,10.70
2018-10-03T23:02:03.270Z,10.62
2018-10-03T23:04:32.040Z,10.52
2018-10-03T23:07:00.930Z,10.50
2018-10-03T23:09:30.755Z,10.41
2018-10-03T23:11:59.676Z,10.33
2018-10-03T23:14:28.583Z,10.23
2018-10-03T23:16:57.386Z,10.14
2018-10-03T23:19:26.233Z,10.06
2018-10-03T23:21:55.303Z,9.97
2018-10-03T23:24:24.119Z,9.90
2018-10-03T23:26:53.006Z,9.85
2018-10-03T23:29:22.962Z,9.78
2018-10-03T23:31:51.842Z,9.72
2018-10-03T23:34:20.684Z,9.65
2018-10-03T23:36:51.316Z,9.62
2018-10-03T23:39:20.122Z,9.58
2018-10-03T23:41:48.916Z,9.54
2018-10-03T23:44:17.678Z,9.47
2018-10-03T23:46:46.880Z,9.40
2018-10-03T23:49:15.656Z,9.35
2018-10-03T23:51:45.742Z,9.28
2018-10-03T23:54:14.660Z,9.20
2018-10-03T23:56:44.922Z,9.11
2018-10-03T23:59:13.978Z,9.06
